sensor_id;sensor_type;location;lat;lon;timestamp;P1;durP1;ratioP1;P2;durP2;ratioP2
14282;SDS011;7225;59.282;18.344;2023-02-22T00:00:44;4.67;;;3.00;;
14282;SDS011;7225;59.282;18.344;2023-02-22T00:03:15;4.23;;;2.67;;
14282;SDS011;7225;59.282;18.344;2023-02-22T00:05:54;5.03;;;3.13;;
14282;SDS011;7225;59.282;18.344;2023-02-22T00:08:26;4.10;;;2.73;;
14282;SDS011;7225;59.282;18.344;2023-02-22T00:11:00;4.37;;;3.20;;
14282;SDS011;7225;59.282;18.344;2023-02-22T00:13:35;2.77;;;2.37;;
14282;SDS011;7225;59.282;18.344;2023-02-22T00:16:03;3.30;;;2.87;;
14282;SDS011;7225;59.282;18.344;2023-02-22T00:18:31;4.03;;;3.00;;
14282;SDS011;7225;59.282;18.344;2023-02-22T00:20:58;2.90;;;2.60;;
14282;SDS011;7225;59.282;18.344;2023-02-22T00:23:27;3.53;;;2.80;;
14282;SDS011;7225;59.282;18.344;2023-02-22T00:25:56;3.07;;;2.60;;
14282;SDS011;7225;59.282;18.344;2023-02-22T00:28:24;3.43;;;2.70;;
14282;SDS011;7225;59.282;18.344;2023-02-22T00:30:51;2.80;;;2.43;;
14282;SDS011;7225;59.282;18.344;2023-02-22T00:33:20;3.90;;;2.67;;
14282;SDS011;7225;59.282;18.344;2023-02-22T00:35:47;3.00;;;2.47;;
14282;SDS011;7225;59.282;18.344;2023-02-22T00:38:15;3.70;;;2.60;;
14282;SDS011;7225;59.282;18.344;2023-02-22T00:40:43;4.20;;;2.60;;
14282;SDS011;7225;59.282;18.344;2023-02-22T00:43:11;4.07;;;2.43;;
14282;SDS011;7225;59.282;18.344;2023-02-22T00:45:38;3.67;;;2.77;;
14282;SDS011;7225;59.282;18.344;2023-02-22T00:48:05;3.30;;;2.67;;
14282;SDS011;7225;59.282;18.344;2023-02-22T00:50:34;3.40;;;2.33;;
14282;SDS011;7225;59.282;18.344;2023-02-22T00:53:02;2.67;;;2.23;;
14282;SDS011;7225;59.282;18.344;2023-02-22T00:55:30;4.93;;;3.07;;
14282;SDS011;7225;59.282;18.344;2023-02-22T00:57:59;4.20;;;2.80;;
14282;SDS011;7225;59.282;18.344;2023-02-22T01:00:33;3.70;;;2.60;;
14282;SDS011;7225;59.282;18.344;2023-02-22T01:03:03;3.17;;;2.50;;
14282;SDS011;7225;59.282;18.344;2023-02-22T01:05:32;3.33;;;2.47;;
14282;SDS011;7225;59.282;18.344;2023-02-22T01:08:00;3.33;;;2.43;;
14282;SDS011;7225;59.282;18.344;2023-02-22T01:10:29;3.60;;;2.20;;
14282;SDS011;7225;59.282;18.344;2023-02-22T01:12:57;4.27;;;2.67;;
14282;SDS011;7225;59.282;18.344;2023-02-22T01:15:26;3.30;;;2.33;;
14282;SDS011;7225;59.282;18.344;2023-02-22T01:17:56;3.30;;;2.57;;
14282;SDS011;7225;59.282;18.344;2023-02-22T01:20:28;3.60;;;2.07;;
14282;SDS011;7225;59.282;18.344;2023-02-22T01:22:56;2.83;;;2.10;;
14282;SDS011;7225;59.282;18.344;2023-02-22T01:25:26;2.57;;;2.30;;
14282;SDS011;7225;59.282;18.344;2023-02-22T01:27:54;3.37;;;1.93;;
14282;SDS011;7225;59.282;18.344;2023-02-22T01:30:25;3.30;;;2.43;;
14282;SDS011;7225;59.282;18.344;2023-02-22T01:32:54;2.77;;;2.47;;
14282;SDS011;7225;59.282;18.344;2023-02-22T01:35:22;3.30;;;2.63;;
14282;SDS011;7225;59.282;18.344;2023-02-22T01:37:53;3.30;;;2.57;;
14282;SDS011;7225;59.282;18.344;2023-02-22T01:40:22;2.83;;;2.50;;
14282;SDS011;7225;59.282;18.344;2023-02-22T01:43:00;3.30;;;2.47;;
14282;SDS011;7225;59.282;18.344;2023-02-22T01:51:11;2.57;;;2.10;;
14282;SDS011;7225;59.282;18.344;2023-02-22T01:53:42;3.53;;;2.40;;
14282;SDS011;7225;59.282;18.344;2023-02-22T01:56:15;3.10;;;2.47;;
14282;SDS011;7225;59.282;18.344;2023-02-22T01:58:46;3.40;;;2.40;;
14282;SDS011;7225;59.282;18.344;2023-02-22T02:01:17;3.87;;;2.50;;
14282;SDS011;7225;59.282;18.344;2023-02-22T02:03:46;3.93;;;2.73;;
14282;SDS011;7225;59.282;18.344;2023-02-22T02:06:14;3.60;;;2.40;;
14282;SDS011;7225;59.282;18.344;2023-02-22T02:11:41;3.43;;;2.70;;
14282;SDS011;7225;59.282;18.344;2023-02-22T02:14:09;3.73;;;2.77;;
14282;SDS011;7225;59.282;18.344;2023-02-22T02:16:39;3.00;;;2.70;;
14282;SDS011;7225;59.282;18.344;2023-02-22T02:22:06;2.87;;;2.40;;
14282;SDS011;7225;59.282;18.344;2023-02-22T02:33:41;3.93;;;2.80;;
14282;SDS011;7225;59.282;18.344;2023-02-22T02:36:26;3.63;;;2.57;;
14282;SDS011;7225;59.282;18.344;2023-02-22T02:41:48;3.70;;;2.80;;
14282;SDS011;7225;59.282;18.344;2023-02-22T02:44:19;3.47;;;2.50;;
14282;SDS011;7225;59.282;18.344;2023-02-22T02:47:13;3.43;;;2.60;;
14282;SDS011;7225;59.282;18.344;2023-02-22T02:52:54;3.40;;;2.40;;
14282;SDS011;7225;59.282;18.344;2023-02-22T02:55:24;3.67;;;2.63;;
14282;SDS011;7225;59.282;18.344;2023-02-22T02:57:54;3.67;;;2.50;;
14282;SDS011;7225;59.282;18.344;2023-02-22T03:00:22;4.47;;;2.93;;
14282;SDS011;7225;59.282;18.344;2023-02-22T03:03:06;3.60;;;3.00;;
14282;SDS011;7225;59.282;18.344;2023-02-22T03:11:35;3.20;;;2.67;;
14282;SDS011;7225;59.282;18.344;2023-02-22T03:14:21;4.97;;;2.50;;
14282;SDS011;7225;59.282;18.344;2023-02-22T03:16:58;4.03;;;2.80;;
14282;SDS011;7225;59.282;18.344;2023-02-22T03:19:57;2.93;;;2.20;;
14282;SDS011;7225;59.282;18.344;2023-02-22T03:22:31;3.83;;;3.00;;
14282;SDS011;7225;59.282;18.344;2023-02-22T03:25:11;4.30;;;2.97;;
14282;SDS011;7225;59.282;18.344;2023-02-22T03:27:49;4.20;;;2.87;;
14282;SDS011;7225;59.282;18.344;2023-02-22T03:30:26;4.80;;;2.83;;
14282;SDS011;7225;59.282;18.344;2023-02-22T03:33:03;2.77;;;2.47;;
14282;SDS011;7225;59.282;18.344;2023-02-22T03:35:40;4.33;;;2.33;;
14282;SDS011;7225;59.282;18.344;2023-02-22T03:38:14;4.63;;;2.90;;
14282;SDS011;7225;59.282;18.344;2023-02-22T03:40:45;3.83;;;2.57;;
14282;SDS011;7225;59.282;18.344;2023-02-22T03:43:17;3.83;;;2.73;;
14282;SDS011;7225;59.282;18.344;2023-02-22T03:45:50;4.03;;;2.70;;
14282;SDS011;7225;59.282;18.344;2023-02-22T03:48:24;3.50;;;2.47;;
14282;SDS011;7225;59.282;18.344;2023-02-22T03:51:05;3.03;;;2.70;;
14282;SDS011;7225;59.282;18.344;2023-02-22T03:53:32;3.60;;;2.60;;
14282;SDS011;7225;59.282;18.344;2023-02-22T03:56:02;3.40;;;2.60;;
14282;SDS011;7225;59.282;18.344;2023-02-22T03:58:33;4.77;;;3.07;;
14282;SDS011;7225;59.282;18.344;2023-02-22T04:01:03;2.83;;;2.40;;
14282;SDS011;7225;59.282;18.344;2023-02-22T04:03:30;3.43;;;2.30;;
14282;SDS011;7225;59.282;18.344;2023-02-22T04:05:57;3.37;;;2.53;;
14282;SDS011;7225;59.282;18.344;2023-02-22T04:08:24;3.93;;;2.90;;
14282;SDS011;7225;59.282;18.344;2023-02-22T04:10:51;3.07;;;2.30;;
14282;SDS011;7225;59.282;18.344;2023-02-22T04:13:19;2.90;;;2.43;;
14282;SDS011;7225;59.282;18.344;2023-02-22T04:15:46;5.30;;;2.93;;
14282;SDS011;7225;59.282;18.344;2023-02-22T04:18:13;3.30;;;2.83;;
14282;SDS011;7225;59.282;18.344;2023-02-22T04:20:40;2.97;;;2.37;;
14282;SDS011;7225;59.282;18.344;2023-02-22T04:23:07;3.93;;;2.77;;
14282;SDS011;7225;59.282;18.344;2023-02-22T04:25:34;4.10;;;2.90;;
14282;SDS011;7225;59.282;18.344;2023-02-22T04:28:01;4.00;;;3.10;;
14282;SDS011;7225;59.282;18.344;2023-02-22T04:30:29;4.07;;;2.83;;
14282;SDS011;7225;59.282;18.344;2023-02-22T04:32:56;3.87;;;2.80;;
14282;SDS011;7225;59.282;18.344;2023-02-22T04:35:23;3.80;;;2.93;;
14282;SDS011;7225;59.282;18.344;2023-02-22T04:37:49;3.80;;;2.90;;
14282;SDS011;7225;59.282;18.344;2023-02-22T04:40:17;4.50;;;3.30;;
14282;SDS011;7225;59.282;18.344;2023-02-22T04:42:44;4.73;;;2.67;;
14282;SDS011;7225;59.282;18.344;2023-02-22T04:45:11;4.43;;;3.33;;
14282;SDS011;7225;59.282;18.344;2023-02-22T04:47:38;5.57;;;3.63;;
14282;SDS011;7225;59.282;18.344;2023-02-22T04:50:06;4.50;;;3.30;;
14282;SDS011;7225;59.282;18.344;2023-02-22T04:52:34;4.47;;;3.20;;
14282;SDS011;7225;59.282;18.344;2023-02-22T04:55:01;4.40;;;3.20;;
14282;SDS011;7225;59.282;18.344;2023-02-22T04:57:28;3.73;;;2.97;;
14282;SDS011;7225;59.282;18.344;2023-02-22T04:59:55;4.77;;;3.33;;
14282;SDS011;7225;59.282;18.344;2023-02-22T05:02:22;6.13;;;3.50;;
14282;SDS011;7225;59.282;18.344;2023-02-22T05:04:49;5.20;;;3.40;;
14282;SDS011;7225;59.282;18.344;2023-02-22T05:07:16;5.13;;;3.43;;
14282;SDS011;7225;59.282;18.344;2023-02-22T05:09:43;3.97;;;3.23;;
14282;SDS011;7225;59.282;18.344;2023-02-22T05:12:10;4.73;;;3.67;;
14282;SDS011;7225;59.282;18.344;2023-02-22T05:14:37;5.00;;;3.83;;
14282;SDS011;7225;59.282;18.344;2023-02-22T05:17:04;4.50;;;3.37;;
14282;SDS011;7225;59.282;18.344;2023-02-22T05:19:32;4.63;;;3.10;;
14282;SDS011;7225;59.282;18.344;2023-02-22T05:21:59;5.40;;;3.77;;
14282;SDS011;7225;59.282;18.344;2023-02-22T05:24:26;8.57;;;3.30;;
14282;SDS011;7225;59.282;18.344;2023-02-22T05:26:53;5.40;;;3.20;;
14282;SDS011;7225;59.282;18.344;2023-02-22T05:29:20;5.83;;;3.60;;
14282;SDS011;7225;59.282;18.344;2023-02-22T05:31:47;4.37;;;3.33;;
14282;SDS011;7225;59.282;18.344;2023-02-22T05:34:14;5.33;;;3.63;;
14282;SDS011;7225;59.282;18.344;2023-02-22T05:36:42;4.97;;;3.17;;
14282;SDS011;7225;59.282;18.344;2023-02-22T05:39:09;5.53;;;3.73;;
14282;SDS011;7225;59.282;18.344;2023-02-22T05:41:36;5.13;;;3.60;;
14282;SDS011;7225;59.282;18.344;2023-02-22T05:44:03;4.80;;;3.40;;
14282;SDS011;7225;59.282;18.344;2023-02-22T05:46:30;4.57;;;3.07;;
14282;SDS011;7225;59.282;18.344;2023-02-22T05:48:57;4.57;;;3.37;;
14282;SDS011;7225;59.282;18.344;2023-02-22T05:51:24;5.33;;;3.87;;
14282;SDS011;7225;59.282;18.344;2023-02-22T05:53:51;5.27;;;3.53;;
14282;SDS011;7225;59.282;18.344;2023-02-22T05:56:22;4.67;;;3.30;;
14282;SDS011;7225;59.282;18.344;2023-02-22T05:58:50;4.10;;;3.37;;
14282;SDS011;7225;59.282;18.344;2023-02-22T06:01:17;4.77;;;3.43;;
14282;SDS011;7225;59.282;18.344;2023-02-22T06:03:45;6.00;;;3.87;;
14282;SDS011;7225;59.282;18.344;2023-02-22T06:06:14;6.67;;;4.17;;
14282;SDS011;7225;59.282;18.344;2023-02-22T06:08:42;5.00;;;3.67;;
14282;SDS011;7225;59.282;18.344;2023-02-22T06:11:09;6.63;;;3.83;;
14282;SDS011;7225;59.282;18.344;2023-02-22T06:13:37;4.20;;;3.20;;
14282;SDS011;7225;59.282;18.344;2023-02-22T06:16:04;4.93;;;3.60;;
14282;SDS011;7225;59.282;18.344;2023-02-22T06:18:32;4.63;;;3.53;;
14282;SDS011;7225;59.282;18.344;2023-02-22T06:20:59;6.30;;;3.33;;
14282;SDS011;7225;59.282;18.344;2023-02-22T06:23:26;5.27;;;3.60;;
14282;SDS011;7225;59.282;18.344;2023-02-22T06:25:53;5.23;;;3.60;;
14282;SDS011;7225;59.282;18.344;2023-02-22T06:28:20;3.90;;;3.00;;
14282;SDS011;7225;59.282;18.344;2023-02-22T06:30:49;5.77;;;4.00;;
14282;SDS011;7225;59.282;18.344;2023-02-22T06:33:16;7.33;;;3.77;;
14282;SDS011;7225;59.282;18.344;2023-02-22T06:35:43;6.13;;;3.70;;
14282;SDS011;7225;59.282;18.344;2023-02-22T06:38:10;4.43;;;3.30;;
14282;SDS011;7225;59.282;18.344;2023-02-22T06:40:37;5.17;;;3.43;;
14282;SDS011;7225;59.282;18.344;2023-02-22T06:43:04;6.80;;;4.17;;
14282;SDS011;7225;59.282;18.344;2023-02-22T06:45:31;4.87;;;3.73;;
14282;SDS011;7225;59.282;18.344;2023-02-22T06:47:58;5.17;;;3.37;;
14282;SDS011;7225;59.282;18.344;2023-02-22T06:50:27;5.30;;;3.30;;
14282;SDS011;7225;59.282;18.344;2023-02-22T06:52:55;6.47;;;3.97;;
14282;SDS011;7225;59.282;18.344;2023-02-22T06:55:24;5.67;;;4.00;;
14282;SDS011;7225;59.282;18.344;2023-02-22T06:57:55;6.60;;;4.30;;
14282;SDS011;7225;59.282;18.344;2023-02-22T07:00:23;4.13;;;3.43;;
14282;SDS011;7225;59.282;18.344;2023-02-22T07:02:51;4.40;;;3.67;;
14282;SDS011;7225;59.282;18.344;2023-02-22T07:05:20;6.30;;;3.97;;
14282;SDS011;7225;59.282;18.344;2023-02-22T07:07:48;7.67;;;3.80;;
14282;SDS011;7225;59.282;18.344;2023-02-22T07:12:46;6.17;;;4.00;;
14282;SDS011;7225;59.282;18.344;2023-02-22T07:15:15;5.40;;;3.87;;
14282;SDS011;7225;59.282;18.344;2023-02-22T07:17:43;5.57;;;3.70;;
14282;SDS011;7225;59.282;18.344;2023-02-22T07:20:10;5.10;;;3.43;;
14282;SDS011;7225;59.282;18.344;2023-02-22T07:22:37;4.00;;;3.40;;
14282;SDS011;7225;59.282;18.344;2023-02-22T07:25:05;6.30;;;4.10;;
14282;SDS011;7225;59.282;18.344;2023-02-22T07:27:35;5.47;;;4.10;;
14282;SDS011;7225;59.282;18.344;2023-02-22T07:30:04;6.37;;;3.83;;
14282;SDS011;7225;59.282;18.344;2023-02-22T07:32:32;5.53;;;4.03;;
14282;SDS011;7225;59.282;18.344;2023-02-22T07:34:59;6.07;;;3.90;;
14282;SDS011;7225;59.282;18.344;2023-02-22T07:37:28;6.83;;;4.47;;
14282;SDS011;7225;59.282;18.344;2023-02-22T07:39:55;5.30;;;3.90;;
14282;SDS011;7225;59.282;18.344;2023-02-22T07:42:22;6.43;;;3.77;;
14282;SDS011;7225;59.282;18.344;2023-02-22T07:44:49;6.27;;;4.37;;
14282;SDS011;7225;59.282;18.344;2023-02-22T07:47:16;5.87;;;3.83;;
14282;SDS011;7225;59.282;18.344;2023-02-22T07:49:43;5.43;;;3.80;;
14282;SDS011;7225;59.282;18.344;2023-02-22T07:52:10;5.87;;;4.67;;
14282;SDS011;7225;59.282;18.344;2023-02-22T07:54:38;5.17;;;4.07;;
14282;SDS011;7225;59.282;18.344;2023-02-22T07:57:04;4.60;;;3.40;;
14282;SDS011;7225;59.282;18.344;2023-02-22T07:59:31;4.93;;;3.97;;
14282;SDS011;7225;59.282;18.344;2023-02-22T08:01:59;6.07;;;4.23;;
14282;SDS011;7225;59.282;18.344;2023-02-22T08:04:26;5.57;;;3.67;;
14282;SDS011;7225;59.282;18.344;2023-02-22T08:06:53;7.37;;;4.50;;
14282;SDS011;7225;59.282;18.344;2023-02-22T08:09:19;5.63;;;3.60;;
14282;SDS011;7225;59.282;18.344;2023-02-22T08:11:46;5.43;;;3.60;;
14282;SDS011;7225;59.282;18.344;2023-02-22T08:14:16;4.77;;;3.43;;
14282;SDS011;7225;59.282;18.344;2023-02-22T08:16:43;5.80;;;3.70;;
14282;SDS011;7225;59.282;18.344;2023-02-22T08:19:10;4.63;;;3.47;;
14282;SDS011;7225;59.282;18.344;2023-02-22T08:21:37;5.93;;;3.63;;
14282;SDS011;7225;59.282;18.344;2023-02-22T08:24:04;5.03;;;3.43;;
14282;SDS011;7225;59.282;18.344;2023-02-22T08:26:31;6.10;;;3.43;;
14282;SDS011;7225;59.282;18.344;2023-02-22T08:28:58;5.93;;;3.70;;
14282;SDS011;7225;59.282;18.344;2023-02-22T08:31:26;6.93;;;3.90;;
14282;SDS011;7225;59.282;18.344;2023-02-22T08:33:53;4.90;;;3.73;;
14282;SDS011;7225;59.282;18.344;2023-02-22T08:36:20;5.30;;;3.87;;
14282;SDS011;7225;59.282;18.344;2023-02-22T08:38:47;5.43;;;4.00;;
14282;SDS011;7225;59.282;18.344;2023-02-22T08:41:13;4.03;;;2.97;;
14282;SDS011;7225;59.282;18.344;2023-02-22T08:43:41;6.93;;;3.93;;
14282;SDS011;7225;59.282;18.344;2023-02-22T08:46:08;4.83;;;3.80;;
14282;SDS011;7225;59.282;18.344;2023-02-22T08:48:35;5.33;;;3.77;;
14282;SDS011;7225;59.282;18.344;2023-02-22T08:51:02;4.53;;;3.37;;
14282;SDS011;7225;59.282;18.344;2023-02-22T08:53:29;5.10;;;3.80;;
14282;SDS011;7225;59.282;18.344;2023-02-22T08:55:58;5.77;;;3.83;;
14282;SDS011;7225;59.282;18.344;2023-02-22T08:58:25;5.70;;;3.57;;
14282;SDS011;7225;59.282;18.344;2023-02-22T09:00:52;5.90;;;4.00;;
14282;SDS011;7225;59.282;18.344;2023-02-22T09:03:19;4.20;;;3.60;;
14282;SDS011;7225;59.282;18.344;2023-02-22T09:05:46;5.30;;;3.90;;
14282;SDS011;7225;59.282;18.344;2023-02-22T09:08:14;6.27;;;3.93;;
14282;SDS011;7225;59.282;18.344;2023-02-22T09:10:42;4.60;;;3.60;;
14282;SDS011;7225;59.282;18.344;2023-02-22T09:13:10;4.47;;;3.57;;
14282;SDS011;7225;59.282;18.344;2023-02-22T09:15:38;5.70;;;3.73;;
14282;SDS011;7225;59.282;18.344;2023-02-22T09:18:06;5.93;;;3.83;;
14282;SDS011;7225;59.282;18.344;2023-02-22T09:20:34;5.43;;;3.73;;
14282;SDS011;7225;59.282;18.344;2023-02-22T09:23:02;6.17;;;3.97;;
14282;SDS011;7225;59.282;18.344;2023-02-22T09:25:30;5.03;;;3.80;;
14282;SDS011;7225;59.282;18.344;2023-02-22T09:27:59;4.97;;;3.20;;
14282;SDS011;7225;59.282;18.344;2023-02-22T09:30:28;4.63;;;3.47;;
14282;SDS011;7225;59.282;18.344;2023-02-22T09:33:05;4.60;;;3.00;;
14282;SDS011;7225;59.282;18.344;2023-02-22T09:35:37;4.27;;;3.50;;
14282;SDS011;7225;59.282;18.344;2023-02-22T09:38:08;4.27;;;3.13;;
14282;SDS011;7225;59.282;18.344;2023-02-22T09:40:37;4.13;;;3.23;;
14282;SDS011;7225;59.282;18.344;2023-02-22T09:46:32;3.83;;;3.27;;
14282;SDS011;7225;59.282;18.344;2023-02-22T09:51:40;3.53;;;3.00;;
14282;SDS011;7225;59.282;18.344;2023-02-22T09:54:22;4.77;;;3.37;;
14282;SDS011;7225;59.282;18.344;2023-02-22T09:57:06;3.87;;;3.20;;
14282;SDS011;7225;59.282;18.344;2023-02-22T09:59:39;4.33;;;3.43;;
14282;SDS011;7225;59.282;18.344;2023-02-22T10:04:54;4.20;;;3.17;;
14282;SDS011;7225;59.282;18.344;2023-02-22T10:07:32;4.43;;;3.10;;
14282;SDS011;7225;59.282;18.344;2023-02-22T10:10:13;5.70;;;2.80;;
14282;SDS011;7225;59.282;18.344;2023-02-22T10:25:55;4.17;;;3.07;;
14282;SDS011;7225;59.282;18.344;2023-02-22T10:31:33;4.87;;;3.27;;
14282;SDS011;7225;59.282;18.344;2023-02-22T10:34:10;4.60;;;3.43;;
14282;SDS011;7225;59.282;18.344;2023-02-22T10:36:43;6.03;;;2.83;;
14282;SDS011;7225;59.282;18.344;2023-02-22T10:42:00;3.33;;;2.90;;
14282;SDS011;7225;59.282;18.344;2023-02-22T10:44:35;4.70;;;3.23;;
14282;SDS011;7225;59.282;18.344;2023-02-22T10:47:10;5.07;;;3.13;;
14282;SDS011;7225;59.282;18.344;2023-02-22T10:49:45;3.83;;;3.03;;
14282;SDS011;7225;59.282;18.344;2023-02-22T10:54:49;4.43;;;3.33;;
14282;SDS011;7225;59.282;18.344;2023-02-22T11:02:56;3.83;;;2.80;;
14282;SDS011;7225;59.282;18.344;2023-02-22T11:05:29;4.80;;;3.23;;
14282;SDS011;7225;59.282;18.344;2023-02-22T11:10:48;4.73;;;3.10;;
14282;SDS011;7225;59.282;18.344;2023-02-22T11:13:57;4.07;;;3.30;;
14282;SDS011;7225;59.282;18.344;2023-02-22T11:16:27;4.20;;;2.90;;
14282;SDS011;7225;59.282;18.344;2023-02-22T11:19:01;5.07;;;3.40;;
14282;SDS011;7225;59.282;18.344;2023-02-22T11:21:35;4.73;;;3.40;;
14282;SDS011;7225;59.282;18.344;2023-02-22T11:24:07;4.33;;;2.97;;
14282;SDS011;7225;59.282;18.344;2023-02-22T11:26:42;4.57;;;3.27;;
14282;SDS011;7225;59.282;18.344;2023-02-22T11:29:18;4.00;;;2.73;;
14282;SDS011;7225;59.282;18.344;2023-02-22T11:31:50;4.63;;;3.13;;
14282;SDS011;7225;59.282;18.344;2023-02-22T11:34:38;3.50;;;3.13;;
14282;SDS011;7225;59.282;18.344;2023-02-22T11:40:14;4.30;;;3.13;;
14282;SDS011;7225;59.282;18.344;2023-02-22T11:42:49;4.10;;;3.10;;
14282;SDS011;7225;59.282;18.344;2023-02-22T11:45:38;3.40;;;3.07;;
14282;SDS011;7225;59.282;18.344;2023-02-22T11:48:18;4.33;;;3.30;;
14282;SDS011;7225;59.282;18.344;2023-02-22T11:51:02;4.30;;;2.90;;
14282;SDS011;7225;59.282;18.344;2023-02-22T11:56:27;4.40;;;3.17;;
14282;SDS011;7225;59.282;18.344;2023-02-22T12:10:29;4.50;;;3.40;;
14282;SDS011;7225;59.282;18.344;2023-02-22T12:13:24;4.27;;;3.13;;
14282;SDS011;7225;59.282;18.344;2023-02-22T12:16:18;4.53;;;3.00;;
14282;SDS011;7225;59.282;18.344;2023-02-22T12:21:45;5.03;;;3.90;;
14282;SDS011;7225;59.282;18.344;2023-02-22T12:24:19;5.07;;;3.60;;
14282;SDS011;7225;59.282;18.344;2023-02-22T12:26:55;6.23;;;3.60;;
14282;SDS011;7225;59.282;18.344;2023-02-22T12:29:32;3.67;;;3.07;;
14282;SDS011;7225;59.282;18.344;2023-02-22T12:32:03;4.73;;;3.23;;
14282;SDS011;7225;59.282;18.344;2023-02-22T12:34:37;5.47;;;3.60;;
14282;SDS011;7225;59.282;18.344;2023-02-22T12:37:27;5.10;;;3.30;;
14282;SDS011;7225;59.282;18.344;2023-02-22T12:40:19;3.93;;;3.17;;
14282;SDS011;7225;59.282;18.344;2023-02-22T12:43:01;4.53;;;3.43;;
14282;SDS011;7225;59.282;18.344;2023-02-22T12:45:47;6.50;;;3.93;;
14282;SDS011;7225;59.282;18.344;2023-02-22T12:48:22;5.47;;;4.00;;
14282;SDS011;7225;59.282;18.344;2023-02-22T12:50:58;4.50;;;3.70;;
14282;SDS011;7225;59.282;18.344;2023-02-22T12:53:37;4.50;;;3.63;;
14282;SDS011;7225;59.282;18.344;2023-02-22T12:59:46;5.07;;;3.53;;
14282;SDS011;7225;59.282;18.344;2023-02-22T13:04:57;5.53;;;3.23;;
14282;SDS011;7225;59.282;18.344;2023-02-22T13:10:20;6.23;;;3.73;;
14282;SDS011;7225;59.282;18.344;2023-02-22T13:18:11;4.40;;;3.40;;
14282;SDS011;7225;59.282;18.344;2023-02-22T13:20:52;5.20;;;3.27;;
14282;SDS011;7225;59.282;18.344;2023-02-22T13:26:33;5.23;;;3.63;;
14282;SDS011;7225;59.282;18.344;2023-02-22T13:29:18;4.23;;;3.43;;
14282;SDS011;7225;59.282;18.344;2023-02-22T13:34:41;4.90;;;3.37;;
14282;SDS011;7225;59.282;18.344;2023-02-22T13:40:15;4.87;;;3.57;;
14282;SDS011;7225;59.282;18.344;2023-02-22T13:43:03;5.17;;;3.53;;
14282;SDS011;7225;59.282;18.344;2023-02-22T13:51:48;6.37;;;4.03;;
14282;SDS011;7225;59.282;18.344;2023-02-22T13:56:45;4.87;;;3.53;;
14282;SDS011;7225;59.282;18.344;2023-02-22T13:59:22;5.77;;;4.17;;
14282;SDS011;7225;59.282;18.344;2023-02-22T14:02:02;5.13;;;3.63;;
14282;SDS011;7225;59.282;18.344;2023-02-22T14:04:32;7.43;;;4.20;;
14282;SDS011;7225;59.282;18.344;2023-02-22T14:09:52;6.53;;;3.37;;
14282;SDS011;7225;59.282;18.344;2023-02-22T14:17:57;5.87;;;4.13;;
14282;SDS011;7225;59.282;18.344;2023-02-22T14:20:32;5.07;;;3.47;;
14282;SDS011;7225;59.282;18.344;2023-02-22T14:41:37;5.90;;;3.83;;
14282;SDS011;7225;59.282;18.344;2023-02-22T14:44:08;6.10;;;4.40;;
14282;SDS011;7225;59.282;18.344;2023-02-22T14:46:39;6.47;;;3.83;;
14282;SDS011;7225;59.282;18.344;2023-02-22T14:49:10;7.83;;;4.30;;
14282;SDS011;7225;59.282;18.344;2023-02-22T14:51:52;5.37;;;4.43;;
14282;SDS011;7225;59.282;18.344;2023-02-22T14:57:53;7.33;;;4.43;;
14282;SDS011;7225;59.282;18.344;2023-02-22T15:00:38;6.60;;;4.00;;
14282;SDS011;7225;59.282;18.344;2023-02-22T15:06:18;4.97;;;3.83;;
14282;SDS011;7225;59.282;18.344;2023-02-22T15:08:48;6.53;;;4.17;;
14282;SDS011;7225;59.282;18.344;2023-02-22T15:11:30;5.33;;;4.07;;
14282;SDS011;7225;59.282;18.344;2023-02-22T15:13:58;6.63;;;4.00;;
14282;SDS011;7225;59.282;18.344;2023-02-22T15:16:28;5.73;;;3.87;;
14282;SDS011;7225;59.282;18.344;2023-02-22T15:18:59;4.67;;;3.90;;
14282;SDS011;7225;59.282;18.344;2023-02-22T15:21:33;5.67;;;3.53;;
14282;SDS011;7225;59.282;18.344;2023-02-22T15:24:01;5.73;;;4.37;;
14282;SDS011;7225;59.282;18.344;2023-02-22T15:29:24;8.10;;;4.27;;
14282;SDS011;7225;59.282;18.344;2023-02-22T15:32:01;5.43;;;3.90;;
14282;SDS011;7225;59.282;18.344;2023-02-22T15:34:43;6.53;;;4.13;;
14282;SDS011;7225;59.282;18.344;2023-02-22T15:37:21;6.10;;;3.90;;
14282;SDS011;7225;59.282;18.344;2023-02-22T15:40:07;5.83;;;3.70;;
14282;SDS011;7225;59.282;18.344;2023-02-22T15:42:44;4.57;;;3.67;;
14282;SDS011;7225;59.282;18.344;2023-02-22T15:45:19;5.83;;;4.17;;
14282;SDS011;7225;59.282;18.344;2023-02-22T15:47:48;4.60;;;3.50;;
14282;SDS011;7225;59.282;18.344;2023-02-22T15:50:25;5.80;;;3.87;;
14282;SDS011;7225;59.282;18.344;2023-02-22T15:52:56;7.23;;;4.20;;
14282;SDS011;7225;59.282;18.344;2023-02-22T15:55:24;5.43;;;3.77;;
14282;SDS011;7225;59.282;18.344;2023-02-22T15:57:56;5.73;;;4.23;;
14282;SDS011;7225;59.282;18.344;2023-02-22T16:00:34;5.40;;;3.77;;
14282;SDS011;7225;59.282;18.344;2023-02-22T16:03:13;8.07;;;4.67;;
14282;SDS011;7225;59.282;18.344;2023-02-22T16:05:45;6.33;;;4.50;;
14282;SDS011;7225;59.282;18.344;2023-02-22T16:08:19;8.27;;;4.80;;
14282;SDS011;7225;59.282;18.344;2023-02-22T16:10:51;5.50;;;4.17;;
14282;SDS011;7225;59.282;18.344;2023-02-22T16:13:26;6.17;;;4.03;;
14282;SDS011;7225;59.282;18.344;2023-02-22T16:18:32;6.53;;;4.70;;
14282;SDS011;7225;59.282;18.344;2023-02-22T16:21:11;5.53;;;4.03;;
14282;SDS011;7225;59.282;18.344;2023-02-22T16:26:22;7.73;;;4.00;;
14282;SDS011;7225;59.282;18.344;2023-02-22T16:28:56;7.93;;;4.50;;
14282;SDS011;7225;59.282;18.344;2023-02-22T16:31:25;5.40;;;4.27;;
14282;SDS011;7225;59.282;18.344;2023-02-22T16:34:03;7.33;;;4.80;;
14282;SDS011;7225;59.282;18.344;2023-02-22T16:36:40;7.07;;;5.07;;
14282;SDS011;7225;59.282;18.344;2023-02-22T16:39:15;9.13;;;5.07;;
14282;SDS011;7225;59.282;18.344;2023-02-22T16:41:46;7.53;;;5.47;;
14282;SDS011;7225;59.282;18.344;2023-02-22T16:44:13;8.03;;;5.23;;
14282;SDS011;7225;59.282;18.344;2023-02-22T16:46:40;7.37;;;5.03;;
14282;SDS011;7225;59.282;18.344;2023-02-22T16:49:10;6.43;;;4.73;;
14282;SDS011;7225;59.282;18.344;2023-02-22T16:51:59;6.53;;;4.50;;
14282;SDS011;7225;59.282;18.344;2023-02-22T16:54:27;9.27;;;4.63;;
14282;SDS011;7225;59.282;18.344;2023-02-22T16:57:00;6.03;;;4.23;;
14282;SDS011;7225;59.282;18.344;2023-02-22T16:59:35;6.60;;;4.20;;
14282;SDS011;7225;59.282;18.344;2023-02-22T17:02:04;5.53;;;4.10;;
14282;SDS011;7225;59.282;18.344;2023-02-22T17:04:36;6.13;;;4.97;;
14282;SDS011;7225;59.282;18.344;2023-02-22T17:07:05;7.23;;;4.53;;
14282;SDS011;7225;59.282;18.344;2023-02-22T17:09:34;6.20;;;4.10;;
14282;SDS011;7225;59.282;18.344;2023-02-22T17:12:01;5.40;;;3.93;;
14282;SDS011;7225;59.282;18.344;2023-02-22T17:14:32;6.10;;;4.00;;
14282;SDS011;7225;59.282;18.344;2023-02-22T17:17:01;4.87;;;4.07;;
14282;SDS011;7225;59.282;18.344;2023-02-22T17:19:28;7.50;;;5.10;;
14282;SDS011;7225;59.282;18.344;2023-02-22T17:21:55;7.67;;;5.03;;
14282;SDS011;7225;59.282;18.344;2023-02-22T17:24:23;6.30;;;4.37;;
14282;SDS011;7225;59.282;18.344;2023-02-22T17:26:54;6.57;;;4.50;;
14282;SDS011;7225;59.282;18.344;2023-02-22T17:29:23;6.17;;;4.53;;
14282;SDS011;7225;59.282;18.344;2023-02-22T17:31:53;5.93;;;4.33;;
14282;SDS011;7225;59.282;18.344;2023-02-22T17:34:20;6.33;;;4.37;;
14282;SDS011;7225;59.282;18.344;2023-02-22T17:36:47;6.73;;;4.97;;
14282;SDS011;7225;59.282;18.344;2023-02-22T17:39:14;5.73;;;4.23;;
14282;SDS011;7225;59.282;18.344;2023-02-22T17:41:41;7.43;;;5.03;;
14282;SDS011;7225;59.282;18.344;2023-02-22T17:44:09;7.30;;;5.50;;
14282;SDS011;7225;59.282;18.344;2023-02-22T17:46:36;7.13;;;4.63;;
14282;SDS011;7225;59.282;18.344;2023-02-22T17:49:06;7.63;;;5.33;;
14282;SDS011;7225;59.282;18.344;2023-02-22T17:51:33;7.10;;;4.60;;
14282;SDS011;7225;59.282;18.344;2023-02-22T17:54:00;8.70;;;5.23;;
14282;SDS011;7225;59.282;18.344;2023-02-22T17:56:27;6.80;;;5.30;;
14282;SDS011;7225;59.282;18.344;2023-02-22T17:58:54;6.53;;;4.90;;